createdAt,value
2022-11-03T00:01:37.509Z,100919.84
2022-11-03T00:04:06.545Z,100925.22
2022-11-03T00:06:34.650Z,100920.81
2022-11-03T00:09:05.255Z,100916.19
2022-11-03T00:11:35.489Z,100918.00
2022-11-03T00:14:03.924Z,100918.13
2022-11-03T00:16:32.216Z,100918.97
2022-11-03T00:19:00.132Z,100922.53
2022-11-03T00:21:28.344Z,100913.75
2022-11-03T00:23:56.350Z,100918.13
2022-11-03T00:26:25.777Z,100908.97
2022-11-03T00:28:56.455Z,100924.34
2022-11-03T00:31:26.342Z,100919.22
2022-11-03T00:33:55.512Z,100929.84
2022-11-03T00:36:25.308Z,100926.31
2022-11-03T00:38:53.808Z,100922.75
2022-11-03T00:41:22.999Z,100936.91
2022-11-03T00:43:51.771Z,100937.66
2022-11-03T00:46:22.744Z,100938.50
2022-11-03T00:48:51.291Z,100944.00
2022-11-03T00:51:20.719Z,100934.97
2022-11-03T00:53:50.105Z,100948.28
2022-11-03T00:56:19.720Z,100942.28
2022-11-03T00:58:47.900Z,100946.53
2022-11-03T01:01:18.453Z,100936.91
2022-11-03T01:04:03.479Z,100943.03
2022-11-03T01:06:50.322Z,100950.31
2022-11-03T01:09:18.763Z,100944.34
2022-11-03T01:11:54.500Z,100956.53
2022-11-03T01:14:22.560Z,100948.63
2022-11-03T01:16:50.483Z,100946.78
2022-11-03T01:19:19.912Z,100938.00
2022-11-03T01:21:47.924Z,100957.78
2022-11-03T01:24:15.811Z,100950.81
2022-11-03T01:26:43.842Z,100951.53
2022-11-03T01:29:11.842Z,100956.19
2022-11-03T01:31:39.848Z,100958.09
2022-11-03T01:34:07.848Z,100968.84
2022-11-03T01:36:37.106Z,100965.41
2022-11-03T01:39:05.087Z,100969.19
2022-11-03T01:41:32.996Z,100967.50
2022-11-03T01:44:35.917Z,100967.69
2022-11-03T01:47:19.278Z,100965.25
2022-11-03T01:49:51.311Z,100976.84
2022-11-03T01:52:25.301Z,100978.53
2022-11-03T01:54:58.206Z,100980.47
2022-11-03T01:57:33.860Z,100978.75
2022-11-03T02:00:03.452Z,100984.13
2022-11-03T02:02:40.890Z,100987.78
2022-11-03T02:05:11.716Z,100990.34
2022-11-03T02:07:47.037Z,100990.34
2022-11-03T02:10:15.182Z,100992.44
2022-11-03T02:12:44.475Z,100985.34
2022-11-03T02:15:14.982Z,100990.56
2022-11-03T02:17:43.928Z,100994.25
2022-11-03T02:20:15.190Z,100996.94
2022-11-03T02:23:21.223Z,100998.88
2022-11-03T02:25:53.446Z,100997.28
2022-11-03T02:28:24.074Z,100973.94
2022-11-03T02:31:00.839Z,100966.97
2022-11-03T02:33:38.805Z,100977.97
2022-11-03T02:36:13.498Z,100988.47
2022-11-03T02:38:48.515Z,100986.78
2022-11-03T02:41:19.815Z,100984.19
2022-11-03T02:43:48.951Z,100985.28
2022-11-03T02:46:18.386Z,100990.75
2022-11-03T02:48:46.933Z,100988.19
2022-11-03T02:51:14.836Z,100986.50
2022-11-03T02:53:49.131Z,100993.66
2022-11-03T02:56:23.168Z,100990.13
2022-11-03T02:58:58.804Z,100990.25
2022-11-03T03:01:34.612Z,100997.56
2022-11-03T03:04:07.358Z,101002.94
2022-11-03T03:06:39.465Z,100999.47
2022-11-03T03:09:14.172Z,101011.19
2022-11-03T03:11:46.070Z,101010.34
2022-11-03T03:14:18.384Z,101008.59
2022-11-03T03:16:52.852Z,101006.66
2022-11-03T03:19:43.242Z,101017.38
2022-11-03T03:22:17.588Z,101021.28
2022-11-03T03:24:52.763Z,101027.16
2022-11-03T03:27:26.360Z,101026.44
2022-11-03T03:29:58.723Z,101025.69
2022-11-03T03:32:29.939Z,101021.06
2022-11-03T03:35:00.507Z,101023.84
2022-11-03T03:37:30.496Z,101018.47
2022-11-03T03:40:04.710Z,101020.19
2022-11-03T03:42:35.559Z,101020.31
2022-11-03T03:45:05.456Z,101026.53
2022-11-03T03:47:35.728Z,101011.63
2022-11-03T03:50:04.150Z,101021.16
2022-11-03T03:52:34.752Z,101020.31
2022-11-03T03:55:03.006Z,101025.69
2022-11-03T03:57:34.346Z,101018.72
2022-11-03T04:00:02.256Z,101030.19
2022-11-03T04:02:40.287Z,101032.13
2022-11-03T04:05:08.351Z,101028.59
2022-11-03T04:07:48.507Z,101035.66
2022-11-03T04:10:17.292Z,101034.16
2022-11-03T04:13:04.958Z,101026.25
2022-11-03T04:15:51.186Z,101024.53
2022-11-03T04:18:37.315Z,101031.63
2022-11-03T04:21:23.536Z,101038.91
2022-11-03T04:23:51.512Z,101038.03
2022-11-03T04:26:23.032Z,101049.53
2022-11-03T04:28:54.112Z,101045.84
2022-11-03T04:31:22.643Z,101045.84
2022-11-03T04:33:50.528Z,101040.41
2022-11-03T04:36:21.770Z,101039.41
2022-11-03T04:38:50.527Z,101044.78
2022-11-03T04:41:20.907Z,101046.63
2022-11-03T04:43:49.598Z,101040.28
2022-11-03T04:46:25.938Z,101046.50
2022-11-03T04:48:54.546Z,101046.63
2022-11-03T04:51:25.222Z,101043.81
2022-11-03T04:53:56.629Z,101048.44
2022-11-03T04:56:26.050Z,101047.59
2022-11-03T04:58:55.027Z,101053.81
2022-11-03T05:01:25.357Z,101022.50
2022-11-03T05:03:55.435Z,101050.13
2022-11-03T05:06:24.799Z,101052.94
2022-11-03T05:08:56.819Z,101054.66
2022-11-03T05:11:31.925Z,101052.09
2022-11-03T05:14:02.821Z,101050.38
2022-11-03T05:16:32.742Z,101054.03
2022-11-03T05:19:01.154Z,101054.13
2022-11-03T05:21:29.558Z,101055.09
2022-11-03T05:24:02.405Z,101064.00
2022-11-03T05:26:33.939Z,101066.78
2022-11-03T05:29:04.681Z,101065.19
2022-11-03T05:31:36.415Z,101075.03
2022-11-03T05:34:26.223Z,101076.78
2022-11-03T05:36:54.186Z,101068.09
2022-11-03T05:39:29.883Z,101068.09
2022-11-03T05:41:59.284Z,101076.25
2022-11-03T05:44:32.100Z,101082.56
2022-11-03T05:47:05.895Z,101081.09
2022-11-03T05:49:36.317Z,101086.44
2022-11-03T05:52:04.381Z,101086.22
2022-11-03T05:54:35.211Z,101087.09
2022-11-03T05:57:03.171Z,101095.97
2022-11-03T05:59:31.106Z,101098.66
2022-11-03T06:02:02.079Z,101102.31
2022-11-03T06:04:33.909Z,101102.31
2022-11-03T06:07:05.072Z,101096.94
2022-11-03T06:09:34.881Z,101098.03
2022-11-03T06:12:06.652Z,101100.59
2022-11-03T06:14:37.438Z,101109.63
2022-11-03T06:17:08.522Z,101114.97
2022-11-03T06:19:39.362Z,101109.84
2022-11-03T06:22:15.411Z,101117.22
2022-11-03T06:24:43.742Z,101121.63
2022-11-03T06:27:15.463Z,101121.63
2022-11-03T06:29:47.683Z,101112.81
2022-11-03T06:32:17.043Z,101118.31
2022-11-03T06:34:48.374Z,101122.72
2022-11-03T06:37:21.138Z,101120.13
2022-11-03T06:39:49.651Z,101122.91
2022-11-03T06:42:20.825Z,101122.91
2022-11-03T06:44:51.151Z,101117.03
2022-11-03T06:47:25.177Z,101125.69
2022-11-03T06:49:55.888Z,101135.56
2022-11-03T06:52:27.570Z,101120.78
2022-11-03T06:55:02.485Z,101137.47
2022-11-03T06:57:35.016Z,101112.47
2022-11-03T07:00:20.414Z,101122.47
2022-11-03T07:03:07.092Z,101134.91
2022-11-03T07:05:35.895Z,101123.47
2022-11-03T07:08:12.552Z,101129.66
2022-11-03T07:10:40.503Z,101130.63
2022-11-03T07:13:15.172Z,101124.19
2022-11-03T07:15:45.100Z,101145.97
2022-11-03T07:18:23.047Z,101126.94
2022-11-03T07:20:52.518Z,101150.53
2022-11-03T07:23:23.342Z,101155.72
2022-11-03T07:25:55.112Z,101165.47
2022-11-03T07:28:25.657Z,101172.66
2022-11-03T07:30:53.717Z,101169.09
2022-11-03T07:33:26.564Z,101171.69
2022-11-03T07:38:49.175Z,101163.66
2022-11-03T07:41:20.593Z,101168.03
2022-11-03T07:43:55.826Z,101163.53
2022-11-03T07:46:25.230Z,101173.41
2022-11-03T07:48:56.649Z,101166.22
2022-11-03T07:51:27.234Z,101164.50
2022-11-03T07:53:58.035Z,101167.16
2022-11-03T07:56:28.271Z,101180.56
2022-11-03T07:59:01.578Z,101182.31
2022-11-03T08:01:32.617Z,101169.66
2022-11-03T08:04:05.750Z,101169.56
2022-11-03T08:06:34.423Z,101169.56
2022-11-03T08:09:02.307Z,101181.88
2022-11-03T08:11:30.282Z,101180.16
2022-11-03T08:13:58.544Z,101187.03
2022-11-03T08:16:26.645Z,101183.38
2022-11-03T08:18:54.542Z,101178.75
2022-11-03T08:21:24.196Z,101182.94
2022-11-03T08:23:52.414Z,101147.38
2022-11-03T08:26:20.347Z,101157.03
2022-11-03T08:28:48.434Z,101175.66
2022-11-03T08:31:16.335Z,101172.97
2022-11-03T08:33:44.613Z,101173.72
2022-11-03T08:36:12.950Z,101174.50
2022-11-03T08:38:42.331Z,101177.06
2022-11-03T08:41:10.243Z,101183.28
2022-11-03T08:43:38.112Z,101184.00
2022-11-03T08:46:15.897Z,101186.50
2022-11-03T08:48:45.008Z,101177.56
2022-11-03T08:51:14.058Z,101187.22
2022-11-03T08:53:44.042Z,101173.28
2022-11-03T08:56:13.685Z,101180.91
2022-11-03T08:58:44.889Z,101180.91
2022-11-03T09:01:13.001Z,101182.59
2022-11-03T09:03:41.274Z,101188.75
2022-11-03T09:06:09.684Z,101187.66
2022-11-03T09:11:26.858Z,101195.47
2022-11-03T09:13:54.743Z,101205.97
2022-11-03T09:16:22.683Z,101207.72
2022-11-03T09:18:50.618Z,101201.47
2022-11-03T09:21:18.533Z,101202.22
2022-11-03T09:23:46.526Z,101196.97
2022-11-03T09:26:14.448Z,101188.94
2022-11-03T09:28:43.721Z,101194.19
2022-11-03T09:31:11.632Z,101197.72
2022-11-03T09:33:39.531Z,101201.16
2022-11-03T09:36:08.047Z,101193.00
2022-11-03T09:38:35.926Z,101190.94
2022-11-03T09:41:13.458Z,101196.31
2022-11-03T09:43:55.108Z,101194.28
2022-11-03T09:46:23.114Z,101202.19
2022-11-03T09:48:51.092Z,101199.44
2022-11-03T09:51:21.806Z,101203.72
2022-11-03T09:53:49.997Z,101198.47
2022-11-03T09:56:20.444Z,101196.53
2022-11-03T09:58:53.990Z,101201.03
2022-11-03T10:01:23.953Z,101200.91
2022-11-03T10:03:52.308Z,101193.00
2022-11-03T10:06:21.364Z,101201.03
2022-11-03T10:08:50.390Z,101194.72
2022-11-03T10:11:18.791Z,101187.09
2022-11-03T10:13:49.080Z,101180.75
2022-11-03T10:16:19.807Z,101189.09
2022-11-03T10:18:49.607Z,101196.06
2022-11-03T10:21:19.321Z,101198.75
2022-11-03T10:23:47.246Z,101189.97
2022-11-03T10:26:19.011Z,101193.38
2022-11-03T10:29:00.859Z,101192.44
2022-11-03T10:31:36.841Z,101188.03
2022-11-03T10:34:07.768Z,101192.78
2022-11-03T10:36:36.325Z,101189.09
2022-11-03T10:39:26.713Z,101161.34
2022-11-03T10:41:59.445Z,101179.22
2022-11-03T10:44:28.679Z,101168.63
2022-11-03T10:46:58.603Z,101166.81
2022-11-03T10:49:29.419Z,101155.25
2022-11-03T10:52:09.320Z,101178.50
2022-11-03T10:54:38.183Z,101175.16
2022-11-03T10:57:06.970Z,101176.75
2022-11-03T10:59:38.884Z,101181.19
2022-11-03T11:02:16.293Z,101169.72
2022-11-03T11:04:47.004Z,101173.34
2022-11-03T11:07:23.289Z,101175.06
2022-11-03T11:09:51.487Z,101170.00
2022-11-03T11:12:23.329Z,101152.78
2022-11-03T11:14:56.762Z,101168.97
2022-11-03T11:17:55.046Z,101169.91
2022-11-03T11:20:34.483Z,101164.66
2022-11-03T11:23:50.115Z,101161.13
2022-11-03T11:26:33.462Z,101157.69
2022-11-03T11:29:45.501Z,101156.72
2022-11-03T11:32:50.197Z,101152.44
2022-11-03T11:35:40.000Z,101132.72
2022-11-03T11:38:44.021Z,101144.38
2022-11-03T11:41:13.288Z,101141.72
2022-11-03T11:43:41.219Z,101137.22
2022-11-03T11:46:39.854Z,101133.53
2022-11-03T11:49:20.393Z,101131.84
2022-11-03T11:51:48.667Z,101128.41
2022-11-03T11:54:20.869Z,101123.81
2022-11-03T11:56:51.185Z,101125.63
2022-11-03T11:59:25.391Z,101110.38
2022-11-03T12:01:56.982Z,101107.69
2022-11-03T12:04:27.765Z,101114.03
2022-11-03T12:06:57.700Z,101114.03
2022-11-03T12:09:28.059Z,101095.28
2022-11-03T12:12:00.671Z,101119.28
2022-11-03T12:14:35.549Z,101112.09
2022-11-03T12:17:34.194Z,101108.56
2022-11-03T12:20:02.102Z,101082.22
2022-11-03T12:22:43.295Z,101108.66
2022-11-03T12:25:40.224Z,101105.03
2022-11-03T12:28:09.952Z,101111.34
2022-11-03T12:30:46.857Z,101110.47
2022-11-03T12:33:14.952Z,101114.03
2022-11-03T12:35:43.490Z,101113.94
2022-11-03T12:38:11.369Z,101114.75
2022-11-03T12:40:39.272Z,101111.13
2022-11-03T12:43:07.458Z,101101.25
2022-11-03T12:45:36.931Z,101107.47
2022-11-03T12:48:06.144Z,101090.09
2022-11-03T12:50:34.114Z,101096.00
2022-11-03T12:53:01.993Z,101095.03
2022-11-03T12:55:29.862Z,101102.94
2022-11-03T12:57:57.748Z,101102.13
2022-11-03T13:00:25.802Z,101095.66
2022-11-03T13:02:55.190Z,101101.66
2022-11-03T13:05:23.214Z,101067.91
2022-11-03T13:07:51.071Z,101100.69
2022-11-03T13:10:19.035Z,101093.38
2022-11-03T13:12:46.876Z,101095.84
2022-11-03T13:15:15.838Z,101095.63
2022-11-03T13:18:13.051Z,101093.63
2022-11-03T13:20:33.683Z,101088.13
2022-11-03T13:23:01.634Z,101070.75
2022-11-03T13:25:29.863Z,101082.41
2022-11-03T13:27:58.137Z,101093.78
2022-11-03T13:30:27.896Z,101080.81
2022-11-03T13:32:55.900Z,101092.19
2022-11-03T13:35:24.135Z,101090.97
2022-11-03T13:37:53.387Z,101086.47
2022-11-03T13:43:09.582Z,101083.91
2022-11-03T13:45:37.685Z,101038.03
2022-11-03T13:50:53.861Z,101076.47
2022-11-03T13:56:16.947Z,101075.28
2022-11-03T14:01:37.795Z,101052.78
2022-11-03T14:06:54.677Z,101058.31
2022-11-03T14:09:24.245Z,101066.13
2022-11-03T14:12:10.142Z,101050.38
2022-11-03T14:14:38.741Z,101058.94
2022-11-03T14:17:06.650Z,101060.53
2022-11-03T14:19:41.555Z,101062.34
2022-11-03T14:22:11.780Z,101064.06
2022-11-03T14:24:41.220Z,101062.97
2022-11-03T14:27:09.180Z,101060.28
2022-11-03T14:29:37.169Z,101059.19
2022-11-03T14:32:05.468Z,101061.78
2022-11-03T14:34:33.454Z,101062.63
2022-11-03T14:37:01.489Z,101059.81
2022-11-03T14:39:29.572Z,101055.44
2022-11-03T14:42:03.553Z,101049.09
2022-11-03T14:44:31.886Z,101049.09
2022-11-03T14:47:01.393Z,101052.50
2022-11-03T14:49:29.426Z,101047.72
2022-11-03T14:51:58.016Z,101046.31
2022-11-03T14:54:26.349Z,101048.13
2022-11-03T14:56:54.269Z,101042.75
2022-11-03T14:59:24.377Z,101041.91
2022-11-03T15:01:53.750Z,101041.91
2022-11-03T15:04:24.509Z,101046.41
2022-11-03T15:06:52.512Z,101046.53
2022-11-03T15:09:20.632Z,101049.09
2022-11-03T15:11:48.589Z,101050.91
2022-11-03T15:14:16.452Z,101056.28
2022-11-03T15:16:46.237Z,101050.91
2022-11-03T15:19:14.595Z,101058.00
2022-11-03T15:21:42.523Z,101063.38
2022-11-03T15:26:58.590Z,101055.53
2022-11-03T15:29:26.532Z,101055.53
2022-11-03T15:31:55.796Z,101059.09
2022-11-03T15:34:23.728Z,101037.13
2022-11-03T15:36:51.649Z,101045.53
2022-11-03T15:39:19.498Z,101042.03
2022-11-03T15:41:47.397Z,101047.25
2022-11-03T15:44:15.392Z,101039.22
2022-11-03T15:46:43.367Z,101031.38
2022-11-03T15:49:12.598Z,101044.44
2022-11-03T15:51:40.756Z,101046.31
2022-11-03T15:54:09.113Z,101050.81
2022-11-03T15:56:37.011Z,101045.31
2022-11-03T15:59:04.935Z,101053.28
2022-11-03T16:01:32.970Z,101049.72
2022-11-03T16:04:01.148Z,101048.72
2022-11-03T16:09:18.318Z,101040.69
2022-11-03T16:11:46.229Z,101044.94
2022-11-03T16:14:15.031Z,101039.59
2022-11-03T16:16:42.939Z,101039.59
2022-11-03T16:19:11.116Z,101030.69
2022-11-03T16:21:40.398Z,101028.00
2022-11-03T16:24:09.097Z,101021.78
2022-11-03T16:26:37.138Z,101023.47
2022-11-03T16:29:05.034Z,101021.66
2022-11-03T16:31:33.542Z,101026.06
2022-11-03T16:34:01.474Z,101018.00
2022-11-03T16:36:29.772Z,101021.56
2022-11-03T16:38:59.035Z,101018.88
2022-11-03T16:41:27.010Z,101004.59
2022-11-03T16:43:54.872Z,101012.63
2022-11-03T16:46:22.779Z,101009.81
2022-11-03T16:48:50.883Z,101015.19
2022-11-03T16:51:19.377Z,101007.88
2022-11-03T16:53:47.302Z,101014.09
2022-11-03T16:56:16.581Z,101010.53
2022-11-03T16:58:44.459Z,101016.13
2022-11-03T17:01:12.498Z,101004.97
2022-11-03T17:03:40.571Z,101005.09
2022-11-03T17:06:08.544Z,100996.19
2022-11-03T17:08:52.300Z,101002.53
2022-11-03T17:11:36.550Z,101003.53
2022-11-03T17:14:06.352Z,100998.25
2022-11-03T17:16:34.434Z,101004.63
2022-11-03T17:19:02.417Z,100997.97
2022-11-03T17:21:30.615Z,100967.09
2022-11-03T17:23:59.859Z,101009.97
2022-11-03T17:26:40.367Z,101005.44
2022-11-03T17:29:16.755Z,101005.56
2022-11-03T17:31:44.690Z,101012.78
2022-11-03T17:34:13.008Z,101017.28
2022-11-03T17:36:41.426Z,101024.50
2022-11-03T17:39:10.711Z,101021.91
2022-11-03T17:41:40.000Z,101011.41
2022-11-03T17:44:14.487Z,100983.19
2022-11-03T17:46:42.419Z,101016.78
2022-11-03T17:49:10.488Z,101015.81
2022-11-03T17:51:42.413Z,101014.84
2022-11-03T17:54:17.066Z,101014.97
2022-11-03T17:56:46.459Z,101016.78
2022-11-03T17:59:16.265Z,101014.09
2022-11-03T18:01:45.339Z,101017.78
2022-11-03T18:06:47.520Z,101024.84
2022-11-03T18:09:16.365Z,101027.41
2022-11-03T18:12:03.404Z,101030.97
2022-11-03T18:14:31.599Z,101039.84
2022-11-03T18:17:00.097Z,101023.16
2022-11-03T18:19:28.052Z,101027.28
2022-11-03T18:21:56.066Z,101029.97
2022-11-03T18:24:23.913Z,101029.97
2022-11-03T18:26:53.172Z,101030.72
2022-11-03T18:29:21.041Z,101036.34
2022-11-03T18:31:50.749Z,101013.81
2022-11-03T18:34:22.749Z,101032.56
2022-11-03T18:36:52.648Z,101035.34
2022-11-03T18:39:24.218Z,101029.25
2022-11-03T18:41:53.587Z,101037.31
2022-11-03T18:44:24.138Z,101031.94
2022-11-03T18:46:54.543Z,101012.50
2022-11-03T18:49:23.166Z,101033.03
2022-11-03T18:51:56.477Z,101038.41
2022-11-03T18:54:30.211Z,101034.84
2022-11-03T18:56:59.581Z,101017.59
2022-11-03T18:59:31.793Z,101028.84
2022-11-03T19:02:00.232Z,101032.63
2022-11-03T19:04:28.468Z,101039.59
2022-11-03T19:06:58.507Z,101033.47
2022-11-03T19:09:27.712Z,101024.47
2022-11-03T19:11:58.662Z,101029.94
2022-11-03T19:14:32.829Z,101023.72
2022-11-03T19:17:21.894Z,101023.84
2022-11-03T19:19:50.243Z,101025.78
2022-11-03T19:22:20.569Z,101024.56
2022-11-03T19:24:52.257Z,101020.19
2022-11-03T19:27:25.547Z,101028.25
2022-11-03T19:29:57.033Z,100986.19
2022-11-03T19:32:26.420Z,101026.41
2022-11-03T19:34:58.202Z,101022.00
2022-11-03T19:37:28.770Z,101020.19
2022-11-03T19:40:00.843Z,101019.19
2022-11-03T19:42:27.739Z,101007.50
2022-11-03T19:44:58.184Z,101014.59
2022-11-03T19:47:31.699Z,101018.09
2022-11-03T19:50:02.509Z,101012.72
2022-11-03T19:52:32.395Z,101013.72
2022-11-03T19:55:03.354Z,101007.63
2022-11-03T19:57:31.445Z,101012.72
2022-11-03T20:00:00.757Z,101014.47
2022-11-03T20:02:29.323Z,101011.78
2022-11-03T20:04:57.372Z,101015.31
2022-11-03T20:07:31.072Z,101012.63
2022-11-03T20:10:00.837Z,101012.72
2022-11-03T20:12:30.913Z,101019.97
2022-11-03T20:15:00.235Z,101013.59
2022-11-03T20:17:28.194Z,101009.31
2022-11-03T20:19:56.103Z,101014.47
2022-11-03T20:22:30.164Z,101014.31
2022-11-03T20:25:02.995Z,101012.72
2022-11-03T20:27:30.980Z,101016.28
2022-11-03T20:30:00.284Z,101007.25
2022-11-03T20:32:28.434Z,100976.06
2022-11-03T20:34:56.342Z,101010.06
2022-11-03T20:37:24.479Z,101008.22
2022-11-03T20:39:52.426Z,101013.72
2022-11-03T20:42:23.108Z,101009.09
2022-11-03T20:44:51.141Z,101014.59
2022-11-03T20:47:20.947Z,101006.41
2022-11-03T20:49:48.920Z,101010.91
2022-11-03T20:52:17.455Z,101012.63
2022-11-03T20:54:45.690Z,101008.97
2022-11-03T20:57:14.431Z,101011.53
2022-11-03T20:59:42.346Z,101009.72
2022-11-03T21:02:12.948Z,101008.72
2022-11-03T21:04:43.199Z,101011.41
2022-11-03T21:07:13.748Z,101008.63
2022-11-03T21:09:42.182Z,101015.81
2022-11-03T21:12:13.581Z,101014.72
2022-11-03T21:15:04.087Z,101011.19
2022-11-03T21:17:49.718Z,101018.38
2022-11-03T21:20:19.049Z,101011.31
2022-11-03T21:22:54.640Z,101020.22
2022-11-03T21:25:24.560Z,101014.84
2022-11-03T21:27:53.737Z,101016.53
2022-11-03T21:30:22.319Z,101013.00
2022-11-03T21:32:50.256Z,101013.75
2022-11-03T21:35:21.977Z,101018.13
2022-11-03T21:37:50.259Z,101006.03
2022-11-03T21:40:18.780Z,101011.91
2022-11-03T21:43:03.893Z,101007.53
2022-11-03T21:45:32.336Z,101005.81
2022-11-03T21:48:18.175Z,101003.97
2022-11-03T21:50:47.883Z,101005.94
2022-11-03T21:53:15.777Z,101000.66
2022-11-03T21:55:43.672Z,101003.34
2022-11-03T21:58:11.547Z,100996.28
2022-11-03T22:00:39.485Z,101003.34
2022-11-03T22:03:07.919Z,100999.81
2022-11-03T22:05:36.024Z,101004.34
2022-11-03T22:08:08.216Z,100994.34
2022-11-03T22:10:39.059Z,101000.66
2022-11-03T22:13:07.433Z,100959.72
2022-11-03T22:15:52.745Z,101002.63
2022-11-03T22:18:20.685Z,101000.06
2022-11-03T22:21:05.955Z,100999.81
2022-11-03T22:23:52.514Z,100998.84
2022-11-03T22:26:38.023Z,101006.03
2022-11-03T22:29:23.103Z,100982.59
2022-11-03T22:31:51.007Z,100996.28
2022-11-03T22:34:36.331Z,100996.28
2022-11-03T22:37:04.330Z,100995.44
2022-11-03T22:39:51.006Z,101005.94
2022-11-03T22:42:36.248Z,101000.56
2022-11-03T22:45:21.620Z,101002.41
2022-11-03T22:47:57.114Z,100996.16
2022-11-03T22:50:25.687Z,101003.34
2022-11-03T22:52:53.550Z,101001.44
2022-11-03T22:55:22.205Z,101001.31
2022-11-03T22:57:50.419Z,101001.16
2022-11-03T23:00:20.433Z,100997.75
2022-11-03T23:02:48.311Z,101004.84
2022-11-03T23:05:16.342Z,101000.44
2022-11-03T23:07:44.214Z,101003.84
2022-11-03T23:10:12.083Z,100998.47
2022-11-03T23:12:41.325Z,100998.47
2022-11-03T23:15:27.120Z,101002.88
2022-11-03T23:18:12.358Z,100990.69
2022-11-03T23:20:57.443Z,100996.78
2022-11-03T23:23:42.704Z,100993.25
2022-11-03T23:26:10.756Z,101008.50
2022-11-03T23:28:40.411Z,100998.75
2022-11-03T23:31:08.820Z,101002.16
2022-11-03T23:33:37.009Z,101005.72
2022-11-03T23:36:05.754Z,101002.16
2022-11-03T23:38:34.345Z,101009.13
2022-11-03T23:41:03.001Z,101007.31
2022-11-03T23:43:30.980Z,101003.63
2022-11-03T23:46:17.940Z,101004.47
2022-11-03T23:48:48.519Z,101009.13
2022-11-03T23:51:17.139Z,101013.50
2022-11-03T23:53:46.622Z,101013.50
2022-11-03T23:56:32.867Z,101022.41
2022-11-03T23:59:01.065Z,101024.25
